Terminal Aerodrome Forecast
Issued by NWS

Current Version | Previous Version | Text Only | Print | Product List | Glossary Off
Versions: 1 2 3 4 5 6 7 8 9 10 11 12 13 14 15 16 17 18 19

000
FTUS41 KPBZ 160520
TAFMGW
TAF
KMGW 160520Z 1606/1706 11006KT P6SM OVC200
     FM161500 15010KT P6SM OVC050
     FM161800 16010G20KT P6SM -RA SCT025 OVC035
     FM170200 19007KT P6SM -RA OVC025=

USA.gov is the U.S. government's official web portal to all federal, state and local government web resources and services.